Hauptseite
METAR-TAF:

METAR-TAF

Flughäfen :

Internationaler König-Abd-al-Aziz-Flughafen

Dschidda, Saudi-Arabien

Breite: 21-42N, Länge: 039-11E, Höhe: 15 m

Beobachtung

Neuester Wetterbericht von vor 19 Minuten, um 04:00 UTC
Wind 5 kt aus West/Nordwest
Temperatur 22°C
Luftfeuchtigkeit 69%
Luftdruck 1016 hPa
Sichtweite 10 km oder mehr
Leicht bewölkt in der Höhe von 4000 ft
Aufgelockert bewölkt in der Höhe von 8000 ft

METAR: OEJN 210400Z 30005KT 9999 FEW040 SCT080 22/16 Q1016 NOSIG

Zeit: 07:19 (04:19 UTC)

Prognose

Neuester Wetterbericht von vor 5 Stunden und 19 Minuten, um 23:00 UTC
Gültige Prognose vom 21 um 00 UTC bis 22 um 06 UTC
Wind 8 kt aus Nordost
Sichtweite: 7000 m
Aufgelockert bewölkt in der Höhe von 4000 ft
Übergehend zu
vom 21 um 08 UTC bis 21 um 10 UTC
Wind 12 kt aus West

TAF: OEJN 202300Z 2100/2206 04008KT 7000 SCT040 BECMG 2108/2110 27012KT

Wetterbeobachtungen und Prognosen von mehr als 4000 Flughäfen (METAR und TAF Bericht).

Die verfügbaren Stationen werden durch gelbe und rote Markierungen auf der Karte dargestellt.

Führen Sie die Maus auf sie, um den Namen der Station zu sehen.

Darauf klicken, um die Beobachtung von Wetterbeobachtungen und Prognosen zu sehen.

Um die Karte zu ändern : klicken Sie auf den grünen Tasten mit einem schwarzen Kreuz Zum Vergrößern, auf den grünen Button mit einem Gedankenstrich zu verkleinern, oder auf die grünen Pfeile für benachbarte Karten.


METAR-TAF: